OIMC  Sarakhs  Airport

Sarakhs, Iran

Add Bookmark
ICAO OIMC
IATA CKT
Type Airport
Status Operational
Latitude
36° 30' 4" N
36.501202
Longitude
61° 3' 53" E
61.064899
Local (GMT +4.5 ) UTC
Aug 26, 2016 04:09 am Aug 25, 2016 23:39
Sunrise-Sunset Local UTC
Begin Civil Twilight 05:24 am 00:54
Sunrise 05:51 am 01:21
Sunset 07:03 pm 14:33
End Civil Twilight 07:29 pm 14:59
VFR
VFR
MVFR
MVFR
IFR
IFR
LIFR
LIFR
Unknown
Unavailable

Current Weather

METAR Observed
OIMC 252300Z AUTO 18002KT //// // ////// 17/M00 Q1013 Thu, Aug 25, 2016 @ 23:00 UTC
(39 Minutes ago)
Wind Conditions
180° at 2 knots (4 kph)
  • No significant weather
Temperatures Readings Precipitation
Current Temp
17°C
63°F
Dewpoint
0°C
32°F
Humidity 32%
Altimeter 29.91" Hg
Sea Level Pressure 1,013 mb
Field Elevation
288 m
945 ft
None Recorded
-
-

CheckWX.com is intended as a tool to help pilots better visualize weather data. It is not intended as a substitute for an official weather briefing obtained from a Flight Service Station. CheckWX.com does not meet the FAA requirements for an official pre-flight weather briefing. Therefore, it's important that pilots still call and obtain an official FSS pre-flight weather briefing.

© 2007-2016 CheckWX.com
23:39:20 UTC